createdAt,value
2022-11-21T00:01:24.028Z,23.00
2022-11-21T00:03:51.491Z,21.50
2022-11-21T00:06:19.405Z,22.17
2022-11-21T00:08:47.077Z,23.20
2022-11-21T00:11:14.535Z,17.67
2022-11-21T00:13:42.281Z,18.27
2022-11-21T00:16:11.959Z,22.70
2022-11-21T00:18:39.634Z,17.75
2022-11-21T00:21:15.747Z,24.08
2022-11-21T00:23:43.881Z,32.85
2022-11-21T00:26:12.735Z,23.48
2022-11-21T00:28:40.118Z,19.10
2022-11-21T00:31:08.040Z,22.60
2022-11-21T00:33:36.641Z,22.98
2022-11-21T00:36:10.553Z,23.55
2022-11-21T00:38:38.799Z,29.88
2022-11-21T00:41:06.763Z,25.63
2022-11-21T00:43:34.770Z,22.58
2022-11-21T00:46:03.109Z,19.55
2022-11-21T00:48:32.208Z,21.17
2022-11-21T00:51:00.788Z,16.58
2022-11-21T00:53:28.855Z,21.98
2022-11-21T00:55:56.190Z,23.33
2022-11-21T00:58:23.586Z,22.85
2022-11-21T01:00:50.968Z,23.83
2022-11-21T01:03:18.347Z,25.40
2022-11-21T01:05:45.605Z,21.85
2022-11-21T01:08:12.975Z,23.95
2022-11-21T01:10:40.378Z,20.45
2022-11-21T01:13:07.819Z,19.52
2022-11-21T01:15:35.134Z,19.33
2022-11-21T01:18:02.440Z,22.40
2022-11-21T01:20:29.779Z,20.83
2022-11-21T01:22:57.137Z,18.90
2022-11-21T01:25:24.533Z,21.70
2022-11-21T01:27:51.891Z,24.75
2022-11-21T01:30:19.304Z,19.30
2022-11-21T01:32:49.996Z,20.38
2022-11-21T01:35:18.087Z,17.02
2022-11-21T01:37:49.075Z,21.17
2022-11-21T01:40:16.834Z,20.25
2022-11-21T01:43:11.299Z,21.15
2022-11-21T01:46:00.584Z,15.00
2022-11-21T01:48:54.547Z,19.55
2022-11-21T01:51:44.591Z,16.23
2022-11-21T01:54:17.082Z,18.65
2022-11-21T01:57:00.696Z,24.90
2022-11-21T01:59:40.337Z,17.27
2022-11-21T02:02:10.790Z,20.88
2022-11-21T02:04:41.705Z,23.95
2022-11-21T02:07:10.050Z,21.52
2022-11-21T02:09:42.155Z,20.00
2022-11-21T02:12:15.311Z,23.55
2022-11-21T02:17:11.472Z,21.98
2022-11-21T02:19:56.830Z,21.23
2022-11-21T02:22:35.934Z,19.58
2022-11-21T02:25:09.911Z,19.67
2022-11-21T02:27:37.501Z,24.25
2022-11-21T02:30:07.390Z,25.73
2022-11-21T02:32:47.184Z,22.08
2022-11-21T02:35:16.837Z,23.10
2022-11-21T02:37:48.080Z,20.65
2022-11-21T02:40:22.815Z,21.90
2022-11-21T02:43:20.354Z,17.45
2022-11-21T02:45:47.709Z,23.10
2022-11-21T02:48:15.119Z,26.08
2022-11-21T02:50:44.506Z,24.08
2022-11-21T02:53:14.329Z,20.65
2022-11-21T02:55:42.293Z,23.67
2022-11-21T02:58:10.465Z,20.50
2022-11-21T03:00:40.450Z,20.88
2022-11-21T03:03:08.186Z,20.83
2022-11-21T03:05:35.838Z,23.00
2022-11-21T03:08:04.248Z,22.67
2022-11-21T03:10:31.657Z,20.70
2022-11-21T03:13:02.165Z,23.42
2022-11-21T03:15:34.585Z,24.52
2022-11-21T03:18:03.535Z,17.63
2022-11-21T03:20:32.380Z,24.52
2022-11-21T03:23:00.013Z,21.83
2022-11-21T03:25:27.350Z,24.75
2022-11-21T03:27:55.032Z,19.33
2022-11-21T03:30:24.287Z,23.00
2022-11-21T03:32:54.738Z,18.80
2022-11-21T03:35:22.162Z,20.83
2022-11-21T03:37:49.624Z,20.02
2022-11-21T03:40:17.228Z,19.15
2022-11-21T03:42:44.711Z,21.95
2022-11-21T03:45:12.132Z,23.70
2022-11-21T03:47:39.508Z,22.23
2022-11-21T03:50:07.274Z,22.40
2022-11-21T03:52:34.603Z,20.95
2022-11-21T03:55:01.989Z,24.05
2022-11-21T03:57:29.368Z,20.77
2022-11-21T03:59:56.754Z,24.77
2022-11-21T04:02:24.132Z,21.15
2022-11-21T04:04:51.464Z,25.00
2022-11-21T04:07:18.816Z,18.40
2022-11-21T04:09:46.209Z,18.60
2022-11-21T04:12:13.528Z,27.15
2022-11-21T04:14:40.844Z,21.45
2022-11-21T04:17:08.246Z,22.35
2022-11-21T04:19:35.578Z,22.17
2022-11-21T04:22:02.956Z,23.70
2022-11-21T04:24:30.634Z,21.50
2022-11-21T04:26:58.096Z,18.70
2022-11-21T04:29:25.387Z,18.17
2022-11-21T04:31:52.728Z,19.70
2022-11-21T04:34:20.023Z,22.48
2022-11-21T04:36:47.339Z,20.63
2022-11-21T04:39:14.665Z,20.42
2022-11-21T04:41:41.973Z,20.80
2022-11-21T04:44:09.317Z,20.42
2022-11-21T04:46:36.658Z,21.63
2022-11-21T04:49:04.010Z,20.55
2022-11-21T04:51:31.332Z,24.65
2022-11-21T04:53:58.680Z,20.52
2022-11-21T04:56:25.954Z,22.60
2022-11-21T04:58:53.621Z,26.80
2022-11-21T05:01:20.988Z,20.13
2022-11-21T05:03:48.363Z,20.90
2022-11-21T05:06:15.672Z,22.83
2022-11-21T05:08:44.825Z,20.85
2022-11-21T05:11:33.568Z,22.05
2022-11-21T05:14:00.933Z,16.52
2022-11-21T05:16:28.380Z,20.10
2022-11-21T05:18:55.727Z,21.83
2022-11-21T05:21:23.026Z,20.65
2022-11-21T05:23:50.358Z,25.20
2022-11-21T05:26:17.690Z,24.08
2022-11-21T05:28:45.036Z,20.45
2022-11-21T05:31:12.374Z,21.05
2022-11-21T05:33:39.798Z,20.90
2022-11-21T05:36:07.253Z,21.50
2022-11-21T05:38:34.570Z,23.55
2022-11-21T05:41:01.946Z,244.05
2022-11-21T05:43:47.300Z,106.65
2022-11-21T05:46:22.871Z,24.23
2022-11-21T05:48:51.438Z,19.77
2022-11-21T05:51:19.322Z,24.98
2022-11-21T05:53:47.893Z,16.42
2022-11-21T05:56:18.377Z,17.38
2022-11-21T05:58:45.924Z,23.75
2022-11-21T06:01:37.503Z,18.55
2022-11-21T06:04:04.960Z,20.25
2022-11-21T06:06:32.350Z,21.58
2022-11-21T06:08:59.866Z,20.52
2022-11-21T06:11:27.273Z,17.35
2022-11-21T06:13:54.976Z,19.70
2022-11-21T06:16:22.323Z,24.55
2022-11-21T06:18:58.315Z,18.88
2022-11-21T06:21:28.920Z,18.27
2022-11-21T06:23:58.331Z,19.15
2022-11-21T06:26:27.246Z,18.50
2022-11-21T06:28:54.887Z,20.45
2022-11-21T06:31:24.807Z,17.58
2022-11-21T06:33:59.143Z,17.88
2022-11-21T06:36:27.194Z,18.67
2022-11-21T06:38:55.878Z,21.42
2022-11-21T06:41:25.986Z,19.50
2022-11-21T06:43:53.529Z,23.05
2022-11-21T06:46:20.829Z,27.35
2022-11-21T06:48:48.125Z,26.77
2022-11-21T06:51:25.928Z,26.45
2022-11-21T06:53:56.026Z,28.80
2022-11-21T06:56:24.509Z,21.92
2022-11-21T06:58:52.158Z,29.90
2022-11-21T07:01:19.534Z,34.53
2022-11-21T07:03:46.886Z,35.53
2022-11-21T07:06:14.453Z,31.73
2022-11-21T07:08:41.853Z,30.45
2022-11-21T07:11:28.796Z,28.42
2022-11-21T07:13:56.620Z,27.20
2022-11-21T07:16:26.373Z,23.65
2022-11-21T07:18:53.920Z,22.63
2022-11-21T07:21:21.253Z,22.42
2022-11-21T07:23:48.763Z,24.98
2022-11-21T07:26:16.134Z,22.60
2022-11-21T07:28:43.763Z,32.58
2022-11-21T07:31:13.998Z,23.83
2022-11-21T07:33:43.605Z,25.25
2022-11-21T07:36:12.810Z,25.38
2022-11-21T07:38:41.485Z,26.20
2022-11-21T07:41:10.137Z,25.10
2022-11-21T07:43:37.438Z,26.65
2022-11-21T07:46:04.792Z,26.13
2022-11-21T07:48:32.127Z,30.55
2022-11-21T07:50:59.417Z,24.27
2022-11-21T07:53:26.767Z,31.27
2022-11-21T07:55:54.137Z,25.50
2022-11-21T07:58:21.460Z,28.48
2022-11-21T08:00:48.795Z,31.75
2022-11-21T08:03:16.235Z,33.53
2022-11-21T08:05:44.521Z,36.05
2022-11-21T08:08:13.148Z,31.60
2022-11-21T08:10:42.893Z,26.77
2022-11-21T08:13:11.500Z,31.58
2022-11-21T08:15:39.018Z,30.60
2022-11-21T08:18:10.856Z,28.67
2022-11-21T08:20:38.668Z,29.70
2022-11-21T08:23:06.957Z,27.02
2022-11-21T08:25:36.678Z,27.15
2022-11-21T08:28:04.826Z,28.55
2022-11-21T08:30:33.319Z,30.10
2022-11-21T08:33:01.667Z,31.55
2022-11-21T08:35:29.910Z,30.45
2022-11-21T08:37:58.283Z,30.60
2022-11-21T08:40:26.711Z,27.02
2022-11-21T08:43:02.186Z,26.88
2022-11-21T08:45:30.405Z,27.05
2022-11-21T08:47:58.236Z,26.00
2022-11-21T08:50:26.458Z,23.50
2022-11-21T08:52:59.277Z,26.25
2022-11-21T08:55:26.640Z,22.52
2022-11-21T08:57:54.014Z,22.00
2022-11-21T09:00:21.424Z,30.42
2022-11-21T09:02:48.805Z,25.50
2022-11-21T09:05:16.139Z,25.23
2022-11-21T09:07:43.558Z,21.52
2022-11-21T09:10:11.289Z,29.02
2022-11-21T09:12:38.635Z,27.33
2022-11-21T09:15:24.788Z,28.00
2022-11-21T09:18:04.216Z,25.85
2022-11-21T09:20:34.118Z,25.85
2022-11-21T09:23:09.220Z,26.10
2022-11-21T09:25:36.783Z,26.05
2022-11-21T09:28:05.710Z,29.38
2022-11-21T09:30:33.517Z,27.02
2022-11-21T09:33:10.165Z,23.88
2022-11-21T09:35:38.231Z,30.83
2022-11-21T09:38:06.327Z,24.13
2022-11-21T09:40:35.357Z,31.05
2022-11-21T09:43:11.537Z,28.27
2022-11-21T09:45:44.923Z,27.42
2022-11-21T09:51:14.160Z,24.30
2022-11-21T09:53:49.632Z,32.67
2022-11-21T09:56:21.464Z,34.28
2022-11-21T09:58:51.705Z,26.70
2022-11-21T10:01:19.149Z,24.33
2022-11-21T10:03:54.841Z,30.80
2022-11-21T10:06:26.591Z,30.73
2022-11-21T10:09:31.868Z,27.10
2022-11-21T10:12:42.118Z,28.02
2022-11-21T10:15:28.664Z,26.83
2022-11-21T10:18:02.025Z,33.30
2022-11-21T10:23:18.498Z,28.83
2022-11-21T10:26:09.682Z,28.33
2022-11-21T10:28:49.195Z,28.77
2022-11-21T10:31:18.015Z,31.08
2022-11-21T10:33:45.614Z,28.80
2022-11-21T10:36:34.154Z,29.00
2022-11-21T10:39:07.463Z,33.33
2022-11-21T10:44:36.896Z,32.55
2022-11-21T10:47:30.151Z,34.42
2022-11-21T10:50:09.550Z,37.55
2022-11-21T10:52:48.092Z,32.15
2022-11-21T10:55:17.153Z,36.63
2022-11-21T10:57:52.062Z,41.53
2022-11-21T11:00:26.584Z,37.67
2022-11-21T11:02:56.683Z,39.67
2022-11-21T11:05:25.237Z,31.52
2022-11-21T11:08:09.002Z,37.45
2022-11-21T11:10:44.735Z,38.13
2022-11-21T11:13:51.139Z,37.30
2022-11-21T11:16:21.363Z,33.72
2022-11-21T11:19:00.988Z,39.15
2022-11-21T11:21:39.550Z,38.13
2022-11-21T11:24:09.883Z,38.30
2022-11-21T11:26:49.507Z,38.33
2022-11-21T11:29:18.397Z,39.83
2022-11-21T11:31:54.336Z,34.10
2022-11-21T11:34:22.114Z,38.75
2022-11-21T11:36:54.594Z,38.20
2022-11-21T11:39:30.206Z,40.70
2022-11-21T11:42:28.406Z,40.30
2022-11-21T11:45:32.425Z,38.03
2022-11-21T11:50:40.357Z,38.75
2022-11-21T11:53:35.139Z,40.38
2022-11-21T11:56:32.996Z,36.85
2022-11-21T11:59:20.301Z,36.22
2022-11-21T12:02:21.417Z,38.63
2022-11-21T12:04:57.849Z,39.00
2022-11-21T12:08:40.251Z,39.97
2022-11-21T12:11:03.437Z,35.58
2022-11-21T12:13:33.856Z,38.05
2022-11-21T12:16:13.080Z,33.47
2022-11-21T12:18:58.593Z,34.35
2022-11-21T12:21:26.516Z,35.90
2022-11-21T12:23:56.358Z,39.13
2022-11-21T12:26:33.583Z,37.13
2022-11-21T12:29:15.878Z,39.28
2022-11-21T12:31:51.923Z,40.22
2022-11-21T12:34:53.948Z,40.95
2022-11-21T12:37:42.164Z,42.70
2022-11-21T12:40:33.730Z,42.63
2022-11-21T12:43:14.206Z,36.28
2022-11-21T12:45:47.502Z,36.60
2022-11-21T12:51:49.468Z,36.20
2022-11-21T12:54:31.851Z,37.78
2022-11-21T12:57:14.846Z,35.53
2022-11-21T12:59:54.564Z,44.17
2022-11-21T13:02:28.001Z,35.08
2022-11-21T13:04:57.268Z,39.47
2022-11-21T13:07:29.501Z,40.90
2022-11-21T13:09:59.269Z,41.55
2022-11-21T13:12:35.638Z,43.78
2022-11-21T13:15:31.822Z,42.63
2022-11-21T13:18:15.914Z,40.55
2022-11-21T13:20:48.862Z,40.75
2022-11-21T13:23:36.965Z,39.05
2022-11-21T13:26:26.035Z,43.60
2022-11-21T13:29:13.977Z,37.50
2022-11-21T13:31:41.881Z,44.17
2022-11-21T13:34:31.017Z,39.08
2022-11-21T13:36:58.894Z,38.78
2022-11-21T13:39:29.451Z,42.75
2022-11-21T13:42:19.956Z,42.92
2022-11-21T13:44:48.970Z,42.88
2022-11-21T13:47:25.790Z,43.65
2022-11-21T13:50:18.159Z,47.63
2022-11-21T13:52:48.485Z,39.42
2022-11-21T13:56:11.960Z,47.75
2022-11-21T13:58:41.863Z,49.22
2022-11-21T14:01:40.374Z,46.72
2022-11-21T14:04:47.083Z,46.17
2022-11-21T14:07:24.110Z,47.10
2022-11-21T14:09:53.559Z,48.70
2022-11-21T14:12:44.533Z,53.40
2022-11-21T14:15:24.637Z,51.67
2022-11-21T14:17:56.611Z,47.60
2022-11-21T14:20:31.374Z,54.17
2022-11-21T14:23:03.465Z,57.35
2022-11-21T14:25:54.042Z,57.13
2022-11-21T14:28:28.393Z,55.67
2022-11-21T14:31:01.881Z,56.78
2022-11-21T14:33:32.805Z,44.85
2022-11-21T14:36:13.178Z,52.58
2022-11-21T14:39:02.228Z,54.30
2022-11-21T14:41:38.251Z,53.65
2022-11-21T14:44:08.342Z,48.95
2022-11-21T14:46:35.679Z,56.03
2022-11-21T14:49:17.740Z,53.17
2022-11-21T14:51:53.780Z,52.38
2022-11-21T14:54:24.434Z,55.30
2022-11-21T14:57:03.176Z,59.47
2022-11-21T14:59:40.368Z,58.58
2022-11-21T15:02:12.396Z,49.13
2022-11-21T15:04:42.468Z,55.70
2022-11-21T15:07:30.066Z,61.35
2022-11-21T15:10:27.301Z,59.72
2022-11-21T15:12:57.601Z,56.22
2022-11-21T15:15:48.259Z,59.88
2022-11-21T15:18:28.897Z,56.85
2022-11-21T15:21:00.199Z,59.20
2022-11-21T15:23:27.526Z,56.50
2022-11-21T15:28:57.931Z,53.25
2022-11-21T15:31:25.504Z,56.97
2022-11-21T15:34:33.299Z,58.33
2022-11-21T15:37:05.657Z,55.00
2022-11-21T15:39:34.361Z,55.45
2022-11-21T15:42:29.744Z,60.25
2022-11-21T15:45:01.940Z,56.88
2022-11-21T15:47:29.429Z,58.50
2022-11-21T15:49:56.782Z,58.00
2022-11-21T15:52:24.354Z,59.38
2022-11-21T15:54:51.698Z,56.58
2022-11-21T15:57:13.937Z,56.67
2022-11-21T15:59:47.463Z,69.53
2022-11-21T16:02:15.380Z,68.55
2022-11-21T16:04:42.851Z,59.03
2022-11-21T16:07:10.214Z,65.70
2022-11-21T16:09:38.664Z,63.88
2022-11-21T16:12:06.028Z,75.63
2022-11-21T16:14:33.380Z,61.10
2022-11-21T16:17:00.746Z,56.38
2022-11-21T16:19:28.774Z,53.58
2022-11-21T16:21:56.267Z,60.97
2022-11-21T16:24:23.582Z,53.38
2022-11-21T16:26:54.586Z,54.65
2022-11-21T16:29:21.988Z,49.95
2022-11-21T16:31:51.114Z,43.40
2022-11-21T16:34:20.052Z,50.22
2022-11-21T16:36:47.438Z,47.70
2022-11-21T16:39:18.202Z,42.10
2022-11-21T16:41:47.344Z,40.40
2022-11-21T16:44:16.029Z,35.42
2022-11-21T16:46:47.236Z,42.08
2022-11-21T16:49:15.295Z,38.22
2022-11-21T16:51:42.705Z,42.13
2022-11-21T16:54:09.979Z,40.95
2022-11-21T16:56:37.431Z,41.80
2022-11-21T16:59:04.773Z,38.78
2022-11-21T17:01:32.204Z,38.28
2022-11-21T17:03:59.751Z,35.42
2022-11-21T17:06:30.113Z,33.78
2022-11-21T17:09:00.528Z,33.97
2022-11-21T17:11:31.163Z,33.30
2022-11-21T17:14:05.106Z,27.50
2022-11-21T17:16:34.474Z,26.85
2022-11-21T17:19:03.163Z,24.80
2022-11-21T17:21:33.111Z,28.98
2022-11-21T17:24:00.406Z,26.35
2022-11-21T17:26:30.011Z,28.77
2022-11-21T17:28:59.770Z,29.27
2022-11-21T17:31:28.184Z,27.88
2022-11-21T17:34:00.924Z,25.30
2022-11-21T17:36:30.429Z,25.65
2022-11-21T17:38:58.006Z,26.48
2022-11-21T17:41:27.473Z,24.65
2022-11-21T17:43:58.754Z,52.92
2022-11-21T17:46:26.799Z,31.13
2022-11-21T17:48:57.779Z,24.75
2022-11-21T17:51:30.098Z,24.52
2022-11-21T17:53:57.893Z,25.83
2022-11-21T17:56:27.611Z,27.50
2022-11-21T17:58:55.262Z,30.23
2022-11-21T18:01:22.985Z,27.15
2022-11-21T18:04:19.759Z,25.10
2022-11-21T18:06:47.285Z,23.33
2022-11-21T18:09:14.836Z,26.10
2022-11-21T18:11:42.320Z,25.70
2022-11-21T18:14:11.625Z,27.67
2022-11-21T18:16:40.326Z,29.40
2022-11-21T18:19:11.221Z,31.30
2022-11-21T18:21:38.612Z,36.20
2022-11-21T18:24:06.527Z,33.50
2022-11-21T18:26:37.027Z,33.80
2022-11-21T18:29:34.557Z,26.63
2022-11-21T18:31:53.714Z,26.73
2022-11-21T18:34:21.244Z,31.23
2022-11-21T18:36:48.699Z,29.25
2022-11-21T18:39:16.113Z,30.63
2022-11-21T18:41:44.089Z,27.67
2022-11-21T18:44:17.053Z,31.65
2022-11-21T18:46:48.094Z,34.45
2022-11-21T18:49:15.520Z,26.55
2022-11-21T18:51:42.932Z,23.40
2022-11-21T18:54:11.192Z,22.90
2022-11-21T18:56:39.684Z,27.42
2022-11-21T18:59:07.836Z,38.85
2022-11-21T19:01:37.531Z,24.90
2022-11-21T19:04:05.288Z,23.17
2022-11-21T19:06:32.648Z,25.27
2022-11-21T19:09:00.106Z,27.20
2022-11-21T19:11:29.604Z,26.92
2022-11-21T19:13:58.107Z,60.58
2022-11-21T19:16:27.168Z,31.77
2022-11-21T19:19:26.501Z,24.25
2022-11-21T19:21:42.751Z,30.08
2022-11-21T19:24:13.405Z,30.67
2022-11-21T19:26:41.791Z,33.08
2022-11-21T19:29:09.991Z,27.85
2022-11-21T19:31:44.145Z,26.92
2022-11-21T19:34:18.319Z,26.10
2022-11-21T19:36:55.118Z,24.20
2022-11-21T19:39:22.559Z,27.13
2022-11-21T19:41:50.133Z,25.38
2022-11-21T19:44:17.620Z,27.85
2022-11-21T19:46:45.000Z,26.20
2022-11-21T19:49:12.528Z,25.35
2022-11-21T19:51:45.949Z,26.58
2022-11-21T19:54:15.428Z,37.00
2022-11-21T19:56:42.921Z,35.30
2022-11-21T19:59:12.567Z,29.67
2022-11-21T20:01:40.306Z,25.75
2022-11-21T20:04:08.077Z,28.73
2022-11-21T20:06:38.604Z,26.48
2022-11-21T20:09:09.216Z,27.48
2022-11-21T20:11:36.933Z,34.65
2022-11-21T20:14:04.427Z,25.55
2022-11-21T20:16:37.631Z,24.58
2022-11-21T20:19:07.959Z,27.30
2022-11-21T20:21:35.738Z,27.67
2022-11-21T20:24:03.797Z,24.73
2022-11-21T20:26:32.729Z,29.92
2022-11-21T20:29:00.813Z,26.63
2022-11-21T20:31:30.693Z,24.33
2022-11-21T20:34:01.145Z,28.42
2022-11-21T20:36:30.660Z,32.13
2022-11-21T20:39:00.239Z,27.95
2022-11-21T20:41:30.065Z,27.23
2022-11-21T20:46:50.765Z,35.83
2022-11-21T20:49:18.362Z,42.15
2022-11-21T20:54:33.436Z,28.92
2022-11-21T20:57:00.763Z,30.70
2022-11-21T20:59:28.509Z,25.60
2022-11-21T21:01:56.149Z,24.30
2022-11-21T21:04:23.570Z,29.55
2022-11-21T21:06:50.876Z,29.60
2022-11-21T21:09:18.255Z,26.90
2022-11-21T21:11:52.033Z,26.88
2022-11-21T21:14:21.450Z,24.77
2022-11-21T21:16:49.197Z,24.13
2022-11-21T21:19:17.475Z,26.50
2022-11-21T21:21:45.581Z,25.73
2022-11-21T21:24:13.076Z,22.75
2022-11-21T21:26:43.703Z,24.02
2022-11-21T21:29:12.914Z,25.42
2022-11-21T21:31:44.089Z,26.20
2022-11-21T21:34:17.362Z,24.95
2022-11-21T21:36:44.807Z,26.40
2022-11-21T21:39:12.218Z,26.88
2022-11-21T21:41:47.022Z,84.13
2022-11-21T21:44:16.004Z,38.03
2022-11-21T21:46:44.268Z,48.45
2022-11-21T21:49:11.995Z,28.35
2022-11-21T21:51:40.084Z,24.48
2022-11-21T21:54:07.642Z,26.08
2022-11-21T21:56:35.104Z,25.42
2022-11-21T21:59:02.549Z,26.05
2022-11-21T22:01:31.943Z,22.58
2022-11-21T22:04:01.579Z,21.20
2022-11-21T22:06:29.850Z,19.13
2022-11-21T22:08:57.222Z,21.27
2022-11-21T22:11:29.996Z,21.88
2022-11-21T22:14:00.239Z,21.15
2022-11-21T22:16:28.564Z,19.10
2022-11-21T22:18:56.602Z,19.70
2022-11-21T22:21:27.922Z,18.67
2022-11-21T22:26:46.307Z,18.75
2022-11-21T22:29:13.647Z,23.13
2022-11-21T22:31:41.037Z,20.38
2022-11-21T22:34:12.236Z,22.17
2022-11-21T22:36:40.031Z,19.27
2022-11-21T22:39:07.503Z,19.75
2022-11-21T22:41:34.948Z,16.05
2022-11-21T22:44:02.322Z,18.20
2022-11-21T22:46:30.528Z,16.27
2022-11-21T22:48:59.099Z,19.60
2022-11-21T22:51:31.514Z,19.02
2022-11-21T22:53:58.946Z,21.80
2022-11-21T22:56:27.059Z,17.38
2022-11-21T22:58:54.453Z,26.00
2022-11-21T23:01:24.722Z,15.85
2022-11-21T23:03:52.962Z,19.98
2022-11-21T23:06:25.888Z,19.55
2022-11-21T23:08:54.840Z,19.15
2022-11-21T23:11:27.892Z,20.27
2022-11-21T23:13:56.909Z,16.05
2022-11-21T23:16:25.078Z,17.05
2022-11-21T23:18:54.035Z,16.20
2022-11-21T23:21:21.700Z,21.95
2022-11-21T23:23:49.153Z,18.75
2022-11-21T23:26:16.543Z,17.05
2022-11-21T23:28:43.927Z,16.35
2022-11-21T23:31:11.349Z,15.50
2022-11-21T23:33:38.763Z,14.18
2022-11-21T23:36:06.314Z,15.07
2022-11-21T23:38:33.691Z,12.43
2022-11-21T23:41:01.052Z,12.82
2022-11-21T23:43:28.395Z,14.00
2022-11-21T23:45:55.814Z,11.60
2022-11-21T23:48:26.611Z,18.50
2022-11-21T23:50:54.544Z,12.82
2022-11-21T23:53:22.046Z,15.48
2022-11-21T23:55:49.483Z,13.85
2022-11-21T23:58:17.150Z,14.52
